Survey, Nebraska
Current Conditions -  °F | °C
As of 6:53 AM on Thursday 30 Oct 2014 (Local Time) from KAIA Reporting Station
Clear Clear  
Wind Chill: 24°   Ceiling: Unl
Heat Index: 30°   Visibility: 10mi
Dew Point: 26°   Wind: 6mph
Humidity: 85%   Direction: 290°WNW
Pressure: 30.26"   Gusts: NA
Location:  41.9086°N, 101.954°W
Report Text: KAIA 301253Z AUTO 29005KT 10SM CLR M01/M03 A3026 RMK AO2 SLP253 T10111033
Loading
Personal Weather Stations






























Interactive Weather Map
Tropical Storm Tracking
New forecast layout! Learn more

10-Day Weather Forecast

Advertisements
Track Severe Weather on mobile